sensor_id;sensor_type;location;lat;lon;timestamp;pressure;altitude;pressure_sealevel;temperature;humidity
77871;BME280;67067;46.850;7.578;2024-03-23T00:54:24;95004.84;;;5.73;50.81
77871;BME280;67067;46.850;7.578;2024-03-23T00:55:25;95009.25;;;5.80;50.82
77871;BME280;67067;46.850;7.578;2024-03-23T00:56:26;95005.91;;;5.84;50.81
77871;BME280;67067;46.850;7.578;2024-03-23T00:57:27;95000.78;;;5.90;50.40
77871;BME280;67067;46.850;7.578;2024-03-23T00:58:27;95004.53;;;5.94;50.66
77871;BME280;67067;46.850;7.578;2024-03-23T00:59:28;95007.53;;;5.97;50.67
77871;BME280;67067;46.850;7.578;2024-03-23T01:00:29;95005.13;;;5.96;50.63
77871;BME280;67067;46.850;7.578;2024-03-23T01:01:30;94995.19;;;5.98;50.74
77871;BME280;67067;46.850;7.578;2024-03-23T01:02:31;94994.28;;;6.04;50.65
77871;BME280;67067;46.850;7.578;2024-03-23T01:03:31;94997.13;;;6.02;50.40
77871;BME280;67067;46.850;7.578;2024-03-23T01:04:32;94996.31;;;6.02;50.35
77871;BME280;67067;46.850;7.578;2024-03-23T01:05:33;94981.47;;;5.96;50.67
77871;BME280;67067;46.850;7.578;2024-03-23T01:06:34;94980.69;;;5.83;50.66
77871;BME280;67067;46.850;7.578;2024-03-23T01:07:35;94988.09;;;5.86;50.58
77871;BME280;67067;46.850;7.578;2024-03-23T01:08:38;94983.41;;;5.88;50.80
77871;BME280;67067;46.850;7.578;2024-03-23T01:09:39;94978.28;;;5.94;50.85
77871;BME280;67067;46.850;7.578;2024-03-23T01:10:40;94976.59;;;5.99;50.67
77871;BME280;67067;46.850;7.578;2024-03-23T01:11:43;94971.91;;;6.01;50.59
77871;BME280;67067;46.850;7.578;2024-03-23T01:12:44;94979.78;;;6.01;50.81
77871;BME280;67067;46.850;7.578;2024-03-23T01:13:44;94978.03;;;6.07;50.82
77871;BME280;67067;46.850;7.578;2024-03-23T01:14:45;94982.72;;;6.05;50.97
77871;BME280;67067;46.850;7.578;2024-03-23T01:15:48;94982.88;;;6.10;50.62
77871;BME280;67067;46.850;7.578;2024-03-23T01:16:49;94971.91;;;6.13;50.66
77871;BME280;67067;46.850;7.578;2024-03-23T01:17:50;94975.88;;;6.16;50.52
77871;BME280;67067;46.850;7.578;2024-03-23T01:18:51;94966.19;;;6.16;50.52
77871;BME280;67067;46.850;7.578;2024-03-23T01:19:52;94974.97;;;6.22;50.68
77871;BME280;67067;46.850;7.578;2024-03-23T01:20:53;94966.88;;;6.24;50.09
77871;BME280;67067;46.850;7.578;2024-03-23T01:21:53;94964.81;;;6.26;50.36
77871;BME280;67067;46.850;7.578;2024-03-23T01:22:54;94961.47;;;6.30;50.36
77871;BME280;67067;46.850;7.578;2024-03-23T01:23:58;94963.19;;;6.37;50.39
77871;BME280;67067;46.850;7.578;2024-03-23T01:25:01;94963.53;;;6.40;50.08
77871;BME280;67067;46.850;7.578;2024-03-23T01:26:02;94958.38;;;6.45;50.13
77871;BME280;67067;46.850;7.578;2024-03-23T01:27:05;94963.63;;;6.45;49.88
77871;BME280;67067;46.850;7.578;2024-03-23T01:28:06;94957.34;;;6.35;50.11
77871;BME280;67067;46.850;7.578;2024-03-23T01:29:07;94954.03;;;6.39;49.83
77871;BME280;67067;46.850;7.578;2024-03-23T01:30:08;94957.59;;;6.45;49.68
77871;BME280;67067;46.850;7.578;2024-03-23T01:31:09;94957.69;;;6.50;50.02
77871;BME280;67067;46.850;7.578;2024-03-23T01:32:10;94952.19;;;6.52;50.00
77871;BME280;67067;46.850;7.578;2024-03-23T01:33:11;94941.66;;;6.52;50.09
77871;BME280;67067;46.850;7.578;2024-03-23T01:34:15;94943.84;;;6.55;50.06
77871;BME280;67067;46.850;7.578;2024-03-23T01:35:15;94945.69;;;6.54;49.82
77871;BME280;67067;46.850;7.578;2024-03-23T01:36:16;94943.84;;;6.55;49.88
77871;BME280;67067;46.850;7.578;2024-03-23T01:37:17;94942.34;;;6.59;49.66
77871;BME280;67067;46.850;7.578;2024-03-23T01:38:18;94946.56;;;6.60;49.71
77871;BME280;67067;46.850;7.578;2024-03-23T01:39:19;94935.47;;;6.58;49.71
77871;BME280;67067;46.850;7.578;2024-03-23T01:40:20;94930.22;;;6.58;49.78
77871;BME280;67067;46.850;7.578;2024-03-23T01:41:21;94930.84;;;6.48;49.50
77871;BME280;67067;46.850;7.578;2024-03-23T01:42:22;94938.00;;;6.53;49.17
77871;BME280;67067;46.850;7.578;2024-03-23T01:43:22;94935.72;;;6.56;49.53
77871;BME280;67067;46.850;7.578;2024-03-23T01:44:23;94941.88;;;6.62;49.23
77871;BME280;67067;46.850;7.578;2024-03-23T01:45:24;94939.00;;;6.64;49.12
77871;BME280;67067;46.850;7.578;2024-03-23T01:46:25;94941.88;;;6.62;49.10
77871;BME280;67067;46.850;7.578;2024-03-23T01:47:28;94948.59;;;6.70;49.11
77871;BME280;67067;46.850;7.578;2024-03-23T01:48:29;94943.56;;;6.68;48.92
77871;BME280;67067;46.850;7.578;2024-03-23T01:49:29;94937.84;;;6.71;48.94
77871;BME280;67067;46.850;7.578;2024-03-23T01:50:31;94933.59;;;6.70;48.98
77871;BME280;67067;46.850;7.578;2024-03-23T01:51:37;94935.44;;;6.70;48.63
77871;BME280;67067;46.850;7.578;2024-03-23T01:52:38;94934.53;;;6.64;48.44
77871;BME280;67067;46.850;7.578;2024-03-23T01:53:38;94941.97;;;6.67;48.46
77871;BME280;67067;46.850;7.578;2024-03-23T01:54:40;94942.44;;;6.64;48.66
77871;BME280;67067;46.850;7.578;2024-03-23T01:55:41;94931.41;;;6.38;49.23
77871;BME280;67067;46.850;7.578;2024-03-23T01:56:42;94927.03;;;6.56;48.60
77871;BME280;67067;46.850;7.578;2024-03-23T01:57:43;94930.22;;;6.58;48.14
77871;BME280;67067;46.850;7.578;2024-03-23T01:58:43;94931.59;;;6.60;48.03
77871;BME280;67067;46.850;7.578;2024-03-23T01:59:44;94932.28;;;6.56;48.43
77871;BME280;67067;46.850;7.578;2024-03-23T02:12:42;94907.25;;;6.53;48.59
77871;BME280;67067;46.850;7.578;2024-03-23T02:13:43;94920.16;;;6.55;48.53
77871;BME280;67067;46.850;7.578;2024-03-23T02:14:46;94924.28;;;6.51;48.95
77871;BME280;67067;46.850;7.578;2024-03-23T02:15:47;94923.56;;;6.67;48.62
77871;BME280;67067;46.850;7.578;2024-03-23T02:16:48;94914.28;;;6.77;48.52
77871;BME280;67067;46.850;7.578;2024-03-23T02:17:52;94909.38;;;6.68;48.19
77871;BME280;67067;46.850;7.578;2024-03-23T02:18:53;94907.56;;;6.69;48.33
77871;BME280;67067;46.850;7.578;2024-03-23T02:19:54;94922.19;;;6.77;48.50
77871;BME280;67067;46.850;7.578;2024-03-23T02:20:55;94930.47;;;6.85;48.08
77871;BME280;67067;46.850;7.578;2024-03-23T02:21:58;94924.75;;;6.88;48.08
77871;BME280;67067;46.850;7.578;2024-03-23T02:22:59;94910.09;;;6.93;48.07
77871;BME280;67067;46.850;7.578;2024-03-23T02:24:00;94912.97;;;6.91;47.88
77871;BME280;67067;46.850;7.578;2024-03-23T02:25:03;94907.69;;;6.91;48.16
77871;BME280;67067;46.850;7.578;2024-03-23T02:26:04;94913.09;;;6.96;48.01
77871;BME280;67067;46.850;7.578;2024-03-23T02:27:04;94906.53;;;6.99;47.97
77871;BME280;67067;46.850;7.578;2024-03-23T02:28:05;94906.09;;;6.90;47.84
77871;BME280;67067;46.850;7.578;2024-03-23T02:29:06;94906.00;;;6.85;48.18
77871;BME280;67067;46.850;7.578;2024-03-23T02:30:07;94897.97;;;6.92;48.17
77871;BME280;67067;46.850;7.578;2024-03-23T02:31:08;94891.47;;;6.94;48.15
77871;BME280;67067;46.850;7.578;2024-03-23T02:32:09;94888.59;;;6.96;48.05
77871;BME280;67067;46.850;7.578;2024-03-23T02:33:10;94882.53;;;6.95;48.02
77871;BME280;67067;46.850;7.578;2024-03-23T02:34:10;94891.00;;;6.85;48.27
77871;BME280;67067;46.850;7.578;2024-03-23T02:35:11;94890.31;;;6.90;48.15
77871;BME280;67067;46.850;7.578;2024-03-23T02:36:12;94887.81;;;6.95;47.80
77871;BME280;67067;46.850;7.578;2024-03-23T02:37:13;94882.28;;;6.97;48.09
77871;BME280;67067;46.850;7.578;2024-03-23T02:38:14;94891.09;;;6.90;48.13
77871;BME280;67067;46.850;7.578;2024-03-23T02:39:15;94883.00;;;6.92;48.03
77871;BME280;67067;46.850;7.578;2024-03-23T02:40:16;94878.75;;;6.91;48.15
77871;BME280;67067;46.850;7.578;2024-03-23T02:41:19;94878.88;;;6.96;47.74
77871;BME280;67067;46.850;7.578;2024-03-23T02:42:23;94880.94;;;6.94;48.01
77871;BME280;67067;46.850;7.578;2024-03-23T02:43:24;94883.56;;;6.94;47.98
77871;BME280;67067;46.850;7.578;2024-03-23T02:44:27;94881.50;;;6.96;47.75
77871;BME280;67067;46.850;7.578;2024-03-23T02:45:28;94891.56;;;6.99;47.58
77871;BME280;67067;46.850;7.578;2024-03-23T02:46:28;94883.66;;;6.99;47.73
77871;BME280;67067;46.850;7.578;2024-03-23T02:47:32;94887.34;;;6.98;47.77
77871;BME280;67067;46.850;7.578;2024-03-23T02:48:32;94879.34;;;6.93;47.86
77871;BME280;67067;46.850;7.578;2024-03-23T02:49:34;94877.38;;;6.88;47.67
77871;BME280;67067;46.850;7.578;2024-03-23T02:50:37;94890.78;;;6.87;48.08
77871;BME280;67067;46.850;7.578;2024-03-23T02:51:38;94885.53;;;6.87;47.96
77871;BME280;67067;46.850;7.578;2024-03-23T02:52:39;94886.31;;;6.87;47.70
77871;BME280;67067;46.850;7.578;2024-03-23T02:53:40;94887.81;;;6.83;48.07
77871;BME280;67067;46.850;7.578;2024-03-23T02:54:41;94889.09;;;6.81;48.18
77871;BME280;67067;46.850;7.578;2024-03-23T02:55:45;94875.94;;;6.81;48.13
77871;BME280;67067;46.850;7.578;2024-03-23T02:56:46;94887.38;;;6.74;48.14
77871;BME280;67067;46.850;7.578;2024-03-23T02:57:49;94885.47;;;6.70;48.52
77871;BME280;67067;46.850;7.578;2024-03-23T02:58:50;94887.75;;;6.66;48.28
77871;BME280;67067;46.850;7.578;2024-03-23T02:59:51;94887.19;;;6.64;48.71
77871;BME280;67067;46.850;7.578;2024-03-23T03:00:52;94891.44;;;6.65;48.46
77871;BME280;67067;46.850;7.578;2024-03-23T03:01:53;94884.09;;;6.67;48.42
77871;BME280;67067;46.850;7.578;2024-03-23T03:02:53;94884.00;;;6.62;48.64
77871;BME280;67067;46.850;7.578;2024-03-23T03:03:54;94877.25;;;6.66;48.76
77871;BME280;67067;46.850;7.578;2024-03-23T03:04:58;94873.03;;;6.65;48.50
77871;BME280;67067;46.850;7.578;2024-03-23T03:05:59;94874.06;;;6.64;48.53
77871;BME280;67067;46.850;7.578;2024-03-23T03:07:00;94876.03;;;6.57;48.47
77871;BME280;67067;46.850;7.578;2024-03-23T03:08:00;94875.94;;;6.52;48.70
77871;BME280;67067;46.850;7.578;2024-03-23T03:09:01;94877.78;;;6.51;48.69
77871;BME280;67067;46.850;7.578;2024-03-23T03:10:02;94877.22;;;6.49;48.98
77871;BME280;67067;46.850;7.578;2024-03-23T03:11:04;94880.63;;;6.50;48.67
77871;BME280;67067;46.850;7.578;2024-03-23T03:12:08;94879.59;;;6.51;48.84
77871;BME280;67067;46.850;7.578;2024-03-23T03:13:08;94874.34;;;6.51;48.75
77871;BME280;67067;46.850;7.578;2024-03-23T03:14:12;94872.75;;;6.50;48.71
77871;BME280;67067;46.850;7.578;2024-03-23T03:15:13;94876.19;;;6.50;48.89
77871;BME280;67067;46.850;7.578;2024-03-23T03:16:14;94891.72;;;6.52;48.67
77871;BME280;67067;46.850;7.578;2024-03-23T03:17:15;94882.56;;;6.54;48.76
77871;BME280;67067;46.850;7.578;2024-03-23T03:18:18;94864.63;;;6.51;49.00
77871;BME280;67067;46.850;7.578;2024-03-23T03:19:19;94851.38;;;6.46;48.85
77871;BME280;67067;46.850;7.578;2024-03-23T03:20:20;94866.81;;;6.42;49.02
77871;BME280;67067;46.850;7.578;2024-03-23T03:21:24;94879.28;;;6.47;48.79
77871;BME280;67067;46.850;7.578;2024-03-23T03:22:24;94873.78;;;6.49;48.65
77871;BME280;67067;46.850;7.578;2024-03-23T03:23:25;94852.72;;;6.49;48.74
77871;BME280;67067;46.850;7.578;2024-03-23T03:24:26;94859.63;;;6.38;49.08
77871;BME280;67067;46.850;7.578;2024-03-23T03:25:27;94866.00;;;6.42;49.20
77871;BME280;67067;46.850;7.578;2024-03-23T03:26:30;94856.31;;;6.42;49.11
77871;BME280;67067;46.850;7.578;2024-03-23T03:27:33;94850.56;;;6.45;48.90
77871;BME280;67067;46.850;7.578;2024-03-23T03:28:34;94858.28;;;6.35;49.11
77871;BME280;67067;46.850;7.578;2024-03-23T03:29:35;94849.00;;;6.32;48.92
77871;BME280;67067;46.850;7.578;2024-03-23T03:30:36;94827.97;;;6.32;49.19
77871;BME280;67067;46.850;7.578;2024-03-23T03:31:38;94842.41;;;6.30;49.11
77871;BME280;67067;46.850;7.578;2024-03-23T03:32:39;94844.00;;;6.31;49.16
77871;BME280;67067;46.850;7.578;2024-03-23T03:33:40;94829.81;;;6.32;48.96
77871;BME280;67067;46.850;7.578;2024-03-23T03:34:40;94825.81;;;6.29;49.06
77871;BME280;67067;46.850;7.578;2024-03-23T03:35:44;94841.03;;;6.27;48.99
77871;BME280;67067;46.850;7.578;2024-03-23T03:36:46;94842.31;;;6.25;49.23
77871;BME280;67067;46.850;7.578;2024-03-23T03:37:47;94833.84;;;6.23;49.16
77871;BME280;67067;46.850;7.578;2024-03-23T03:38:47;94819.16;;;6.10;49.48
77871;BME280;67067;46.850;7.578;2024-03-23T03:39:48;94821.88;;;6.03;49.36
77871;BME280;67067;46.850;7.578;2024-03-23T03:40:49;94827.72;;;6.05;49.44
77871;BME280;67067;46.850;7.578;2024-03-23T03:41:50;94820.19;;;5.97;50.00
77871;BME280;67067;46.850;7.578;2024-03-23T03:42:51;94808.09;;;5.96;49.60
77871;BME280;67067;46.850;7.578;2024-03-23T03:43:54;94813.03;;;5.80;50.14
77871;BME280;67067;46.850;7.578;2024-03-23T03:44:58;94813.13;;;5.85;50.33
77871;BME280;67067;46.850;7.578;2024-03-23T03:46:00;94807.31;;;5.83;50.33
77871;BME280;67067;46.850;7.578;2024-03-23T03:47:01;94802.97;;;5.89;49.97
77871;BME280;67067;46.850;7.578;2024-03-23T03:48:02;94818.19;;;5.87;50.26
77871;BME280;67067;46.850;7.578;2024-03-23T03:49:03;94811.31;;;5.86;50.27
77871;BME280;67067;46.850;7.578;2024-03-23T03:50:04;94811.22;;;5.81;50.15
77871;BME280;67067;46.850;7.578;2024-03-23T03:51:07;94803.09;;;5.82;50.26
77871;BME280;67067;46.850;7.578;2024-03-23T03:52:08;94806.19;;;5.79;50.37
77871;BME280;67067;46.850;7.578;2024-03-23T03:53:08;94808.34;;;5.82;50.51
77871;BME280;67067;46.850;7.578;2024-03-23T03:54:12;94794.66;;;5.80;50.22
77871;BME280;67067;46.850;7.578;2024-03-23T03:55:14;94800.47;;;5.82;50.42
77871;BME280;67067;46.850;7.578;2024-03-23T03:56:15;94804.69;;;5.83;50.07
77871;BME280;67067;46.850;7.578;2024-03-23T03:57:16;94801.03;;;5.84;50.34
77871;BME280;67067;46.850;7.578;2024-03-23T03:58:16;94801.97;;;5.78;50.15
77871;BME280;67067;46.850;7.578;2024-03-23T03:59:17;94796.81;;;5.83;50.12
77871;BME280;67067;46.850;7.578;2024-03-23T04:00:20;94785.84;;;5.86;50.41
77871;BME280;67067;46.850;7.578;2024-03-23T04:01:24;94784.03;;;5.87;50.40
77871;BME280;67067;46.850;7.578;2024-03-23T04:02:25;94779.09;;;5.91;50.25
77871;BME280;67067;46.850;7.578;2024-03-23T04:03:25;94771.94;;;5.86;50.41
77871;BME280;67067;46.850;7.578;2024-03-23T04:04:26;94763.94;;;5.81;50.41
77871;BME280;67067;46.850;7.578;2024-03-23T04:05:27;94773.19;;;5.83;50.28
77871;BME280;67067;46.850;7.578;2024-03-23T04:06:28;94780.13;;;5.90;50.57
77871;BME280;67067;46.850;7.578;2024-03-23T04:07:29;94785.94;;;5.92;50.22
77871;BME280;67067;46.850;7.578;2024-03-23T04:08:30;94766.06;;;5.96;50.15
77871;BME280;67067;46.850;7.578;2024-03-23T04:09:30;94750.66;;;5.87;50.57
77871;BME280;67067;46.850;7.578;2024-03-23T04:10:31;94765.75;;;5.92;50.59
77871;BME280;67067;46.850;7.578;2024-03-23T04:11:32;94763.91;;;5.93;50.52
77871;BME280;67067;46.850;7.578;2024-03-23T04:12:33;94760.81;;;5.96;50.62
77871;BME280;67067;46.850;7.578;2024-03-23T04:13:37;94760.34;;;5.99;50.53
77871;BME280;67067;46.850;7.578;2024-03-23T04:14:37;94767.19;;;6.00;50.24
77871;BME280;67067;46.850;7.578;2024-03-23T04:15:38;94757.81;;;6.04;50.53
77871;BME280;67067;46.850;7.578;2024-03-23T04:16:39;94752.06;;;6.07;50.46
77871;BME280;67067;46.850;7.578;2024-03-23T04:17:40;94758.94;;;6.08;50.32
77871;BME280;67067;46.850;7.578;2024-03-23T04:18:43;94750.03;;;6.09;50.51
77871;BME280;67067;46.850;7.578;2024-03-23T04:19:48;94748.53;;;6.13;50.26
77871;BME280;67067;46.850;7.578;2024-03-23T04:20:49;94763.06;;;6.04;50.74
77871;BME280;67067;46.850;7.578;2024-03-23T04:21:50;94752.97;;;6.13;50.30
77871;BME280;67067;46.850;7.578;2024-03-23T04:22:51;94743.03;;;6.15;50.44
77871;BME280;67067;46.850;7.578;2024-03-23T04:23:52;94748.28;;;6.15;50.40
77871;BME280;67067;46.850;7.578;2024-03-23T04:24:54;94736.63;;;6.23;50.08
77871;BME280;67067;46.850;7.578;2024-03-23T04:25:55;94737.50;;;6.28;49.80
77871;BME280;67067;46.850;7.578;2024-03-23T04:26:56;94740.69;;;6.30;49.87
77871;BME280;67067;46.850;7.578;2024-03-23T04:27:59;94742.63;;;6.35;50.24
77871;BME280;67067;46.850;7.578;2024-03-23T04:29:00;94737.91;;;6.37;50.02
77871;BME280;67067;46.850;7.578;2024-03-23T04:30:02;94741.19;;;6.44;49.99
77871;BME280;67067;46.850;7.578;2024-03-23T04:31:04;94730.19;;;6.48;50.29
77871;BME280;67067;46.850;7.578;2024-03-23T04:32:06;94722.41;;;6.53;50.25
77871;BME280;67067;46.850;7.578;2024-03-23T04:33:07;94709.56;;;6.56;49.80
77871;BME280;67067;46.850;7.578;2024-03-23T04:34:08;94712.31;;;6.32;49.49
77871;BME280;67067;46.850;7.578;2024-03-23T04:35:09;94708.53;;;6.40;49.49
77871;BME280;67067;46.850;7.578;2024-03-23T04:36:13;94700.72;;;6.45;49.69
77871;BME280;67067;46.850;7.578;2024-03-23T04:37:14;94714.41;;;6.48;49.25
77871;BME280;67067;46.850;7.578;2024-03-23T04:38:15;94704.53;;;6.55;49.30
77871;BME280;67067;46.850;7.578;2024-03-23T04:39:17;94705.19;;;6.62;49.11
77871;BME280;67067;46.850;7.578;2024-03-23T04:40:17;94711.34;;;6.68;49.05
77871;BME280;67067;46.850;7.578;2024-03-23T04:41:18;94711.06;;;6.69;48.71
77871;BME280;67067;46.850;7.578;2024-03-23T04:42:20;94708.06;;;6.78;48.61
77871;BME280;67067;46.850;7.578;2024-03-23T04:43:20;94707.25;;;6.77;48.63
77871;BME280;67067;46.850;7.578;2024-03-23T04:44:21;94700.75;;;6.80;48.44
77871;BME280;67067;46.850;7.578;2024-03-23T04:45:22;94709.50;;;6.85;48.20
77871;BME280;67067;46.850;7.578;2024-03-23T04:46:23;94716.69;;;6.90;48.09
77871;BME280;67067;46.850;7.578;2024-03-23T04:47:27;94707.50;;;6.93;48.32
77871;BME280;67067;46.850;7.578;2024-03-23T04:48:30;94709.19;;;6.99;47.96
77871;BME280;67067;46.850;7.578;2024-03-23T04:49:31;94711.03;;;6.98;48.19
77871;BME280;67067;46.850;7.578;2024-03-23T04:50:32;94707.44;;;7.04;47.75
77871;BME280;67067;46.850;7.578;2024-03-23T04:51:36;94705.03;;;7.03;47.89
77871;BME280;67067;46.850;7.578;2024-03-23T04:52:44;94704.81;;;7.04;47.94
77871;BME280;67067;46.850;7.578;2024-03-23T04:53:45;94710.63;;;7.07;47.71
77871;BME280;67067;46.850;7.578;2024-03-23T04:54:46;94704.31;;;7.08;47.63
77871;BME280;67067;46.850;7.578;2024-03-23T04:55:47;94708.00;;;7.07;47.80
77871;BME280;67067;46.850;7.578;2024-03-23T04:56:47;94713.00;;;7.08;47.92
77871;BME280;67067;46.850;7.578;2024-03-23T04:57:48;94713.00;;;7.08;47.97
77871;BME280;67067;46.850;7.578;2024-03-23T04:58:51;94713.09;;;7.13;47.64
77871;BME280;67067;46.850;7.578;2024-03-23T04:59:52;94715.47;;;7.15;47.63
77871;BME280;67067;46.850;7.578;2024-03-23T05:02:09;94721.69;;;6.74;47.80
77871;BME280;67067;46.850;7.578;2024-03-23T05:03:11;94728.28;;;6.60;48.33
77871;BME280;67067;46.850;7.578;2024-03-23T05:04:12;94736.25;;;6.65;48.73
77871;BME280;67067;46.850;7.578;2024-03-23T05:05:13;94731.41;;;6.74;48.32
77871;BME280;67067;46.850;7.578;2024-03-23T05:06:14;94732.31;;;6.80;48.38
77871;BME280;67067;46.850;7.578;2024-03-23T05:07:14;94735.31;;;6.88;47.90
77871;BME280;67067;46.850;7.578;2024-03-23T05:08:16;94740.56;;;6.88;47.89
77871;BME280;67067;46.850;7.578;2024-03-23T05:09:17;94738.13;;;6.82;47.95
77871;BME280;67067;46.850;7.578;2024-03-23T05:10:17;94732.00;;;6.93;47.83
77871;BME280;67067;46.850;7.578;2024-03-23T05:11:18;94721.00;;;6.96;47.96
77871;BME280;67067;46.850;7.578;2024-03-23T05:12:19;94740.53;;;7.00;47.87
77871;BME280;67067;46.850;7.578;2024-03-23T05:13:20;94742.91;;;7.02;47.64
77871;BME280;67067;46.850;7.578;2024-03-23T05:14:21;94730.63;;;7.08;48.15
77871;BME280;67067;46.850;7.578;2024-03-23T05:15:26;94744.56;;;7.08;47.94
77871;BME280;67067;46.850;7.578;2024-03-23T05:16:30;94750.31;;;7.05;48.08
77871;BME280;67067;46.850;7.578;2024-03-23T05:17:32;94735.50;;;7.16;47.58
77871;BME280;67067;46.850;7.578;2024-03-23T05:18:33;94731.75;;;7.12;47.81
77871;BME280;67067;46.850;7.578;2024-03-23T05:19:34;94737.25;;;7.10;48.04
77871;BME280;67067;46.850;7.578;2024-03-23T05:20:34;94740.59;;;7.06;48.33
77871;BME280;67067;46.850;7.578;2024-03-23T05:21:35;94737.72;;;7.07;47.95
77871;BME280;67067;46.850;7.578;2024-03-23T05:22:39;94735.97;;;7.13;48.08
77871;BME280;67067;46.850;7.578;2024-03-23T05:23:41;94728.75;;;7.25;47.41
77871;BME280;67067;46.850;7.578;2024-03-23T05:24:46;94739.38;;;7.30;47.38
77871;BME280;67067;46.850;7.578;2024-03-23T05:25:47;94750.28;;;7.39;48.06
77871;BME280;67067;46.850;7.578;2024-03-23T05:26:50;94774.69;;;7.52;48.49
77871;BME280;67067;46.850;7.578;2024-03-23T05:27:51;94784.25;;;7.58;49.52
77871;BME280;67067;46.850;7.578;2024-03-23T05:28:52;94822.06;;;7.69;51.16
77871;BME280;67067;46.850;7.578;2024-03-23T05:29:53;94798.53;;;7.84;52.28
77871;BME280;67067;46.850;7.578;2024-03-23T05:30:56;94799.34;;;7.85;53.74
77871;BME280;67067;46.850;7.578;2024-03-23T05:31:59;94809.81;;;8.02;53.95
77871;BME280;67067;46.850;7.578;2024-03-23T05:33:00;94796.41;;;8.03;54.15
77871;BME280;67067;46.850;7.578;2024-03-23T05:34:01;94801.66;;;8.20;53.87
77871;BME280;67067;46.850;7.578;2024-03-23T05:35:02;94809.72;;;8.36;53.53
77871;BME280;67067;46.850;7.578;2024-03-23T05:36:03;94808.28;;;8.50;53.24
77871;BME280;67067;46.850;7.578;2024-03-23T05:37:04;94805.16;;;8.54;53.44
77871;BME280;67067;46.850;7.578;2024-03-23T05:38:07;94804.69;;;8.62;53.05
77871;BME280;67067;46.850;7.578;2024-03-23T05:39:10;94812.72;;;8.72;53.24
77871;BME280;67067;46.850;7.578;2024-03-23T05:40:11;94811.47;;;8.80;53.19
77871;BME280;67067;46.850;7.578;2024-03-23T05:41:13;94814.13;;;8.80;53.31
77871;BME280;67067;46.850;7.578;2024-03-23T05:42:14;94820.88;;;8.98;52.88
77871;BME280;67067;46.850;7.578;2024-03-23T05:43:15;94820.34;;;8.96;53.37
77871;BME280;67067;46.850;7.578;2024-03-23T05:44:15;94818.81;;;9.05;53.17
77871;BME280;67067;46.850;7.578;2024-03-23T05:45:16;94830.75;;;9.08;53.30
77871;BME280;67067;46.850;7.578;2024-03-23T05:46:19;94829.94;;;9.07;53.30
77871;BME280;67067;46.850;7.578;2024-03-23T05:47:19;94822.53;;;9.10;53.28
77871;BME280;67067;46.850;7.578;2024-03-23T05:48:21;94830.47;;;9.10;53.27
77871;BME280;67067;46.850;7.578;2024-03-23T05:49:21;94819.13;;;9.09;52.88
77871;BME280;67067;46.850;7.578;2024-03-23T05:50:23;94822.81;;;9.08;52.41
77871;BME280;67067;46.850;7.578;2024-03-23T05:51:24;94827.75;;;8.99;52.63
77871;BME280;67067;46.850;7.578;2024-03-23T05:52:25;94835.91;;;8.98;52.10
77871;BME280;67067;46.850;7.578;2024-03-23T05:53:28;94854.94;;;9.00;52.07
77871;BME280;67067;46.850;7.578;2024-03-23T05:54:30;94868.88;;;8.95;52.47
77871;BME280;67067;46.850;7.578;2024-03-23T05:55:31;94873.91;;;8.97;52.39
77871;BME280;67067;46.850;7.578;2024-03-23T05:56:32;94873.34;;;8.94;52.59
77871;BME280;67067;46.850;7.578;2024-03-23T05:57:35;94885.06;;;8.76;53.40
77871;BME280;67067;46.850;7.578;2024-03-23T05:58:36;94877.63;;;8.73;53.64
77871;BME280;67067;46.850;7.578;2024-03-23T05:59:37;94868.19;;;8.77;53.45
77871;BME280;67067;46.850;7.578;2024-03-23T06:00:38;94894.09;;;8.81;53.62
77871;BME280;67067;46.850;7.578;2024-03-23T06:01:42;94877.44;;;8.80;53.57
77871;BME280;67067;46.850;7.578;2024-03-23T06:02:43;94885.63;;;8.78;53.89
77871;BME280;67067;46.850;7.578;2024-03-23T06:03:47;94889.00;;;8.74;54.23
77871;BME280;67067;46.850;7.578;2024-03-23T06:04:48;94884.66;;;8.62;55.23
77871;BME280;67067;46.850;7.578;2024-03-23T06:05:48;94892.69;;;8.73;54.02
77871;BME280;67067;46.850;7.578;2024-03-23T06:06:51;94882.16;;;8.78;54.10
77871;BME280;67067;46.850;7.578;2024-03-23T06:07:53;94885.63;;;8.78;54.20
77871;BME280;67067;46.850;7.578;2024-03-23T06:08:53;94886.59;;;8.72;54.76
77871;BME280;67067;46.850;7.578;2024-03-23T06:09:54;94894.28;;;8.74;54.74
77871;BME280;67067;46.850;7.578;2024-03-23T06:10:55;94895.38;;;8.78;54.69
77871;BME280;67067;46.850;7.578;2024-03-23T06:11:59;94901.16;;;8.75;54.80
77871;BME280;67067;46.850;7.578;2024-03-23T06:13:00;94895.00;;;8.69;54.41
77871;BME280;67067;46.850;7.578;2024-03-23T06:14:03;94904.81;;;8.74;54.30
77871;BME280;67067;46.850;7.578;2024-03-23T06:15:09;94906.41;;;8.75;53.89
77871;BME280;67067;46.850;7.578;2024-03-23T06:16:10;94915.03;;;8.43;53.81
77871;BME280;67067;46.850;7.578;2024-03-23T06:17:11;94932.44;;;8.66;53.27
77871;BME280;67067;46.850;7.578;2024-03-23T06:18:14;94946.44;;;8.67;53.20
77871;BME280;67067;46.850;7.578;2024-03-23T06:19:14;94921.09;;;8.66;52.36
77871;BME280;67067;46.850;7.578;2024-03-23T06:20:15;94940.56;;;8.59;52.61
77871;BME280;67067;46.850;7.578;2024-03-23T06:21:19;94938.41;;;8.56;51.72
77871;BME280;67067;46.850;7.578;2024-03-23T06:22:20;94941.53;;;8.53;52.14
77871;BME280;67067;46.850;7.578;2024-03-23T06:23:21;94930.50;;;8.56;51.58
77871;BME280;67067;46.850;7.578;2024-03-23T06:24:22;94942.31;;;8.54;52.15
77871;BME280;67067;46.850;7.578;2024-03-23T06:25:23;94941.69;;;8.46;51.91
77871;BME280;67067;46.850;7.578;2024-03-23T06:26:27;94931.53;;;8.55;52.11
77871;BME280;67067;46.850;7.578;2024-03-23T06:27:27;94932.03;;;8.52;52.12
77871;BME280;67067;46.850;7.578;2024-03-23T06:28:28;94959.44;;;8.51;52.06
77871;BME280;67067;46.850;7.578;2024-03-23T06:29:29;94960.28;;;8.57;51.79
77871;BME280;67067;46.850;7.578;2024-03-23T06:30:32;94956.53;;;8.53;52.62
77871;BME280;67067;46.850;7.578;2024-03-23T06:31:33;94944.66;;;8.50;52.02
77871;BME280;67067;46.850;7.578;2024-03-23T06:32:34;94964.19;;;8.32;51.50
77871;BME280;67067;46.850;7.578;2024-03-23T06:33:35;94973.84;;;8.43;51.56
77871;BME280;67067;46.850;7.578;2024-03-23T06:34:35;94971.34;;;8.54;51.46
77871;BME280;67067;46.850;7.578;2024-03-23T06:35:38;94962.81;;;8.46;51.32
77871;BME280;67067;46.850;7.578;2024-03-23T06:36:39;94960.44;;;8.45;51.01